sensor_id;sensor_type;location;lat;lon;timestamp;temperature;humidity
44433;DHT22;30136;50.600;4.608;2022-08-19T00:00:32;29.10;53.60
44433;DHT22;30136;50.600;4.608;2022-08-19T00:01:34;29.10;53.00
44433;DHT22;30136;50.600;4.608;2022-08-19T00:02:37;29.10;53.10
44433;DHT22;30136;50.600;4.608;2022-08-19T00:03:38;29.10;52.90
44433;DHT22;30136;50.600;4.608;2022-08-19T00:04:39;29.10;53.00
44433;DHT22;30136;50.600;4.608;2022-08-19T00:05:40;29.10;53.00
44433;DHT22;30136;50.600;4.608;2022-08-19T00:06:42;29.10;53.00
44433;DHT22;30136;50.600;4.608;2022-08-19T00:07:44;29.10;53.00
44433;DHT22;30136;50.600;4.608;2022-08-19T00:08:45;29.10;53.60
44433;DHT22;30136;50.600;4.608;2022-08-19T00:09:46;29.10;52.90
44433;DHT22;30136;50.600;4.608;2022-08-19T00:10:47;29.10;52.90
44433;DHT22;30136;50.600;4.608;2022-08-19T00:11:48;29.10;52.90
44433;DHT22;30136;50.600;4.608;2022-08-19T00:12:49;29.10;52.80
44433;DHT22;30136;50.600;4.608;2022-08-19T00:13:51;29.10;52.90
44433;DHT22;30136;50.600;4.608;2022-08-19T00:14:51;29.10;52.90
44433;DHT22;30136;50.600;4.608;2022-08-19T00:15:55;29.10;52.90
44433;DHT22;30136;50.600;4.608;2022-08-19T00:16:56;29.10;52.90
44433;DHT22;30136;50.600;4.608;2022-08-19T00:17:57;29.10;52.80
44433;DHT22;30136;50.600;4.608;2022-08-19T00:18:58;29.10;52.80
44433;DHT22;30136;50.600;4.608;2022-08-19T00:19:58;29.10;52.80
44433;DHT22;30136;50.600;4.608;2022-08-19T00:20:59;29.10;52.80
44433;DHT22;30136;50.600;4.608;2022-08-19T00:22:00;29.10;52.90
44433;DHT22;30136;50.600;4.608;2022-08-19T00:23:02;29.00;52.80
44433;DHT22;30136;50.600;4.608;2022-08-19T00:24:03;29.10;52.90
44433;DHT22;30136;50.600;4.608;2022-08-19T00:25:05;29.10;52.90
44433;DHT22;30136;50.600;4.608;2022-08-19T00:26:06;29.10;52.80
44433;DHT22;30136;50.600;4.608;2022-08-19T00:27:08;29.00;52.80
44433;DHT22;30136;50.600;4.608;2022-08-19T00:28:08;29.00;52.70
44433;DHT22;30136;50.600;4.608;2022-08-19T00:29:10;29.10;52.70
44433;DHT22;30136;50.600;4.608;2022-08-19T00:30:14;29.10;52.80
44433;DHT22;30136;50.600;4.608;2022-08-19T00:31:15;29.10;52.80
44433;DHT22;30136;50.600;4.608;2022-08-19T00:32:16;29.10;52.80
44433;DHT22;30136;50.600;4.608;2022-08-19T00:33:17;29.10;52.80
44433;DHT22;30136;50.600;4.608;2022-08-19T00:34:18;29.10;52.80
44433;DHT22;30136;50.600;4.608;2022-08-19T00:35:18;29.10;52.80
44433;DHT22;30136;50.600;4.608;2022-08-19T00:36:19;29.10;52.80
44433;DHT22;30136;50.600;4.608;2022-08-19T00:37:21;29.10;52.80
44433;DHT22;30136;50.600;4.608;2022-08-19T00:38:23;29.10;52.80
44433;DHT22;30136;50.600;4.608;2022-08-19T00:39:24;29.10;52.80
44433;DHT22;30136;50.600;4.608;2022-08-19T00:40:24;29.10;52.80
44433;DHT22;30136;50.600;4.608;2022-08-19T00:41:25;29.10;52.80
44433;DHT22;30136;50.600;4.608;2022-08-19T00:42:26;29.10;52.80
44433;DHT22;30136;50.600;4.608;2022-08-19T00:43:28;29.10;52.70
44433;DHT22;30136;50.600;4.608;2022-08-19T00:44:29;29.10;52.70
44433;DHT22;30136;50.600;4.608;2022-08-19T00:45:30;29.10;52.80
44433;DHT22;30136;50.600;4.608;2022-08-19T00:46:32;29.10;52.80
44433;DHT22;30136;50.600;4.608;2022-08-19T00:47:36;29.10;52.80
44433;DHT22;30136;50.600;4.608;2022-08-19T00:48:37;29.10;52.80
44433;DHT22;30136;50.600;4.608;2022-08-19T00:49:41;29.10;52.70
44433;DHT22;30136;50.600;4.608;2022-08-19T00:50:48;29.10;52.70
44433;DHT22;30136;50.600;4.608;2022-08-19T00:51:50;29.10;52.70
44433;DHT22;30136;50.600;4.608;2022-08-19T00:52:52;29.10;52.70
44433;DHT22;30136;50.600;4.608;2022-08-19T00:53:54;29.10;52.70
44433;DHT22;30136;50.600;4.608;2022-08-19T00:54:56;29.10;53.30
44433;DHT22;30136;50.600;4.608;2022-08-19T00:55:58;29.10;52.70
44433;DHT22;30136;50.600;4.608;2022-08-19T00:56:59;29.10;52.70
44433;DHT22;30136;50.600;4.608;2022-08-19T00:58:04;29.10;52.70
44433;DHT22;30136;50.600;4.608;2022-08-19T00:59:07;29.10;52.70
44433;DHT22;30136;50.600;4.608;2022-08-19T01:00:10;29.10;52.70
44433;DHT22;30136;50.600;4.608;2022-08-19T01:01:13;29.10;52.80
44433;DHT22;30136;50.600;4.608;2022-08-19T01:02:16;29.10;52.70
44433;DHT22;30136;50.600;4.608;2022-08-19T01:03:19;29.10;52.70
44433;DHT22;30136;50.600;4.608;2022-08-19T01:04:20;29.10;52.70
44433;DHT22;30136;50.600;4.608;2022-08-19T01:05:22;29.10;52.70
44433;DHT22;30136;50.600;4.608;2022-08-19T01:06:27;29.10;52.70
44433;DHT22;30136;50.600;4.608;2022-08-19T01:07:28;29.10;52.80
44433;DHT22;30136;50.600;4.608;2022-08-19T01:08:29;29.10;52.70
44433;DHT22;30136;50.600;4.608;2022-08-19T01:09:30;29.10;52.70
44433;DHT22;30136;50.600;4.608;2022-08-19T01:10:32;29.10;52.70
44433;DHT22;30136;50.600;4.608;2022-08-19T01:11:37;29.10;52.60
44433;DHT22;30136;50.600;4.608;2022-08-19T01:12:41;29.10;52.70
44433;DHT22;30136;50.600;4.608;2022-08-19T01:13:42;29.10;52.70
44433;DHT22;30136;50.600;4.608;2022-08-19T01:14:43;29.10;52.80
44433;DHT22;30136;50.600;4.608;2022-08-19T01:15:48;29.10;52.70
44433;DHT22;30136;50.600;4.608;2022-08-19T01:16:52;29.10;52.70
44433;DHT22;30136;50.600;4.608;2022-08-19T01:17:54;29.10;52.70
44433;DHT22;30136;50.600;4.608;2022-08-19T01:18:55;29.10;52.70
44433;DHT22;30136;50.600;4.608;2022-08-19T01:19:59;29.10;52.60
44433;DHT22;30136;50.600;4.608;2022-08-19T01:21:01;29.10;52.60
44433;DHT22;30136;50.600;4.608;2022-08-19T01:22:08;29.10;52.60
44433;DHT22;30136;50.600;4.608;2022-08-19T01:23:32;29.10;52.50
44433;DHT22;30136;50.600;4.608;2022-08-19T01:24:45;29.10;52.60
44433;DHT22;30136;50.600;4.608;2022-08-19T01:25:47;29.10;52.60
44433;DHT22;30136;50.600;4.608;2022-08-19T01:26:50;29.10;52.60
44433;DHT22;30136;50.600;4.608;2022-08-19T01:27:52;29.10;52.60
44433;DHT22;30136;50.600;4.608;2022-08-19T01:28:54;29.00;52.50
44433;DHT22;30136;50.600;4.608;2022-08-19T01:29:56;29.10;52.50
44433;DHT22;30136;50.600;4.608;2022-08-19T01:30:56;29.10;52.50
44433;DHT22;30136;50.600;4.608;2022-08-19T01:31:57;29.10;52.50
44433;DHT22;30136;50.600;4.608;2022-08-19T01:32:59;29.10;52.50
44433;DHT22;30136;50.600;4.608;2022-08-19T01:34:06;29.10;52.50
44433;DHT22;30136;50.600;4.608;2022-08-19T01:35:07;29.10;52.50
44433;DHT22;30136;50.600;4.608;2022-08-19T01:36:09;29.10;52.50
44433;DHT22;30136;50.600;4.608;2022-08-19T01:37:13;29.10;52.50
44433;DHT22;30136;50.600;4.608;2022-08-19T01:38:22;29.10;52.50
44433;DHT22;30136;50.600;4.608;2022-08-19T01:39:24;29.10;52.50
44433;DHT22;30136;50.600;4.608;2022-08-19T01:40:27;29.10;52.60
44433;DHT22;30136;50.600;4.608;2022-08-19T01:41:29;29.00;52.50
44433;DHT22;30136;50.600;4.608;2022-08-19T01:42:30;29.00;52.50
44433;DHT22;30136;50.600;4.608;2022-08-19T01:43:32;29.00;52.50
44433;DHT22;30136;50.600;4.608;2022-08-19T01:44:34;29.00;52.50
44433;DHT22;30136;50.600;4.608;2022-08-19T01:45:36;29.00;52.50
44433;DHT22;30136;50.600;4.608;2022-08-19T01:46:39;29.00;52.50
44433;DHT22;30136;50.600;4.608;2022-08-19T01:47:40;29.00;52.50
44433;DHT22;30136;50.600;4.608;2022-08-19T01:48:42;29.00;52.50
44433;DHT22;30136;50.600;4.608;2022-08-19T01:49:43;29.00;52.50
44433;DHT22;30136;50.600;4.608;2022-08-19T01:50:44;29.00;52.50
44433;DHT22;30136;50.600;4.608;2022-08-19T01:51:45;29.00;52.50
44433;DHT22;30136;50.600;4.608;2022-08-19T01:52:46;29.00;52.60
44433;DHT22;30136;50.600;4.608;2022-08-19T01:53:48;29.00;52.60
44433;DHT22;30136;50.600;4.608;2022-08-19T01:54:49;29.00;52.50
44433;DHT22;30136;50.600;4.608;2022-08-19T01:55:50;29.00;52.50
44433;DHT22;30136;50.600;4.608;2022-08-19T01:56:51;29.00;52.50
44433;DHT22;30136;50.600;4.608;2022-08-19T01:57:56;29.00;52.60
44433;DHT22;30136;50.600;4.608;2022-08-19T01:59:00;29.00;52.50
44433;DHT22;30136;50.600;4.608;2022-08-19T02:00:06;29.00;52.50
44433;DHT22;30136;50.600;4.608;2022-08-19T02:01:11;29.00;52.50
44433;DHT22;30136;50.600;4.608;2022-08-19T02:02:12;29.00;52.50
44433;DHT22;30136;50.600;4.608;2022-08-19T02:03:14;29.00;52.50
44433;DHT22;30136;50.600;4.608;2022-08-19T02:04:15;29.00;52.50
44433;DHT22;30136;50.600;4.608;2022-08-19T02:05:16;29.00;52.60
44433;DHT22;30136;50.600;4.608;2022-08-19T02:06:18;29.00;52.60
44433;DHT22;30136;50.600;4.608;2022-08-19T02:07:20;29.00;52.50
44433;DHT22;30136;50.600;4.608;2022-08-19T02:08:21;29.00;52.50
44433;DHT22;30136;50.600;4.608;2022-08-19T02:09:22;29.00;52.60
44433;DHT22;30136;50.600;4.608;2022-08-19T02:10:23;29.00;52.50
44433;DHT22;30136;50.600;4.608;2022-08-19T02:11:27;28.90;52.40
44433;DHT22;30136;50.600;4.608;2022-08-19T02:12:31;29.00;52.50
44433;DHT22;30136;50.600;4.608;2022-08-19T02:13:33;29.00;52.50
44433;DHT22;30136;50.600;4.608;2022-08-19T02:14:35;29.00;52.50
44433;DHT22;30136;50.600;4.608;2022-08-19T02:15:36;29.00;52.40
44433;DHT22;30136;50.600;4.608;2022-08-19T02:16:37;29.00;52.30
44433;DHT22;30136;50.600;4.608;2022-08-19T02:17:38;29.00;52.50
44433;DHT22;30136;50.600;4.608;2022-08-19T02:18:39;29.00;52.50
44433;DHT22;30136;50.600;4.608;2022-08-19T02:19:40;29.00;52.50
44433;DHT22;30136;50.600;4.608;2022-08-19T02:20:41;29.00;52.60
44433;DHT22;30136;50.600;4.608;2022-08-19T02:21:43;29.00;52.50
44433;DHT22;30136;50.600;4.608;2022-08-19T02:22:45;29.00;52.40
44433;DHT22;30136;50.600;4.608;2022-08-19T02:23:45;29.00;52.40
44433;DHT22;30136;50.600;4.608;2022-08-19T02:24:46;29.00;52.50
44433;DHT22;30136;50.600;4.608;2022-08-19T02:25:48;29.00;52.40
44433;DHT22;30136;50.600;4.608;2022-08-19T02:26:51;29.00;52.50
44433;DHT22;30136;50.600;4.608;2022-08-19T02:27:52;28.90;52.50
44433;DHT22;30136;50.600;4.608;2022-08-19T02:28:55;29.00;52.40
44433;DHT22;30136;50.600;4.608;2022-08-19T02:29:56;29.00;52.40
44433;DHT22;30136;50.600;4.608;2022-08-19T02:30:57;29.00;52.40
44433;DHT22;30136;50.600;4.608;2022-08-19T02:31:58;29.00;52.40
44433;DHT22;30136;50.600;4.608;2022-08-19T02:32:59;29.00;52.40
44433;DHT22;30136;50.600;4.608;2022-08-19T02:34:00;29.00;52.40
44433;DHT22;30136;50.600;4.608;2022-08-19T02:35:01;29.00;52.30
44433;DHT22;30136;50.600;4.608;2022-08-19T02:36:05;28.90;52.30
44433;DHT22;30136;50.600;4.608;2022-08-19T02:37:06;28.90;52.20
44433;DHT22;30136;50.600;4.608;2022-08-19T02:38:27;28.90;52.30
44433;DHT22;30136;50.600;4.608;2022-08-19T02:39:28;28.90;52.30
44433;DHT22;30136;50.600;4.608;2022-08-19T02:40:29;28.90;52.30
44433;DHT22;30136;50.600;4.608;2022-08-19T02:41:34;28.90;52.30
44433;DHT22;30136;50.600;4.608;2022-08-19T02:42:35;28.90;52.30
44433;DHT22;30136;50.600;4.608;2022-08-19T02:43:36;28.90;52.30
44433;DHT22;30136;50.600;4.608;2022-08-19T02:44:37;28.90;52.20
44433;DHT22;30136;50.600;4.608;2022-08-19T02:45:38;28.90;52.30
44433;DHT22;30136;50.600;4.608;2022-08-19T02:46:40;28.90;52.30
44433;DHT22;30136;50.600;4.608;2022-08-19T02:47:41;28.90;52.30
44433;DHT22;30136;50.600;4.608;2022-08-19T02:48:43;28.90;52.30
44433;DHT22;30136;50.600;4.608;2022-08-19T02:49:44;28.90;52.30
44433;DHT22;30136;50.600;4.608;2022-08-19T02:50:45;28.90;52.30
44433;DHT22;30136;50.600;4.608;2022-08-19T02:51:47;28.90;52.20
44433;DHT22;30136;50.600;4.608;2022-08-19T02:52:48;28.90;52.30
44433;DHT22;30136;50.600;4.608;2022-08-19T02:53:48;28.90;52.20
44433;DHT22;30136;50.600;4.608;2022-08-19T02:54:49;28.90;52.30
44433;DHT22;30136;50.600;4.608;2022-08-19T02:55:50;28.90;52.20
44433;DHT22;30136;50.600;4.608;2022-08-19T02:56:51;28.90;52.20
44433;DHT22;30136;50.600;4.608;2022-08-19T02:57:52;28.90;52.10
44433;DHT22;30136;50.600;4.608;2022-08-19T02:58:53;28.90;52.20
44433;DHT22;30136;50.600;4.608;2022-08-19T02:59:55;28.90;52.10
44433;DHT22;30136;50.600;4.608;2022-08-19T03:00:55;28.90;52.10
44433;DHT22;30136;50.600;4.608;2022-08-19T03:01:57;28.90;52.10
44433;DHT22;30136;50.600;4.608;2022-08-19T03:02:58;28.90;52.10
44433;DHT22;30136;50.600;4.608;2022-08-19T03:04:01;28.90;52.10
44433;DHT22;30136;50.600;4.608;2022-08-19T03:05:04;28.90;52.00
44433;DHT22;30136;50.600;4.608;2022-08-19T03:06:13;29.00;52.00
44433;DHT22;30136;50.600;4.608;2022-08-19T03:07:16;29.00;52.00
44433;DHT22;30136;50.600;4.608;2022-08-19T03:08:17;29.00;52.00
44433;DHT22;30136;50.600;4.608;2022-08-19T03:09:18;28.90;52.00
44433;DHT22;30136;50.600;4.608;2022-08-19T03:10:20;28.90;52.00
44433;DHT22;30136;50.600;4.608;2022-08-19T03:11:21;29.00;52.00
44433;DHT22;30136;50.600;4.608;2022-08-19T03:12:24;28.90;51.90
44433;DHT22;30136;50.600;4.608;2022-08-19T03:13:24;28.90;51.90
44433;DHT22;30136;50.600;4.608;2022-08-19T03:14:25;28.90;51.90
44433;DHT22;30136;50.600;4.608;2022-08-19T03:15:26;28.90;52.00
44433;DHT22;30136;50.600;4.608;2022-08-19T03:16:29;28.90;51.90
44433;DHT22;30136;50.600;4.608;2022-08-19T03:17:30;28.90;51.80
44433;DHT22;30136;50.600;4.608;2022-08-19T03:18:31;28.90;51.90
44433;DHT22;30136;50.600;4.608;2022-08-19T03:19:32;28.90;51.90
44433;DHT22;30136;50.600;4.608;2022-08-19T03:20:33;28.90;51.90
44433;DHT22;30136;50.600;4.608;2022-08-19T03:21:34;28.90;51.80
44433;DHT22;30136;50.600;4.608;2022-08-19T03:22:35;28.90;51.80
44433;DHT22;30136;50.600;4.608;2022-08-19T03:23:35;28.90;51.80
44433;DHT22;30136;50.600;4.608;2022-08-19T03:24:36;28.90;51.80
44433;DHT22;30136;50.600;4.608;2022-08-19T03:25:39;28.90;51.90
44433;DHT22;30136;50.600;4.608;2022-08-19T03:26:47;28.90;51.80
44433;DHT22;30136;50.600;4.608;2022-08-19T03:27:49;28.90;51.80
44433;DHT22;30136;50.600;4.608;2022-08-19T03:28:49;28.90;51.70
44433;DHT22;30136;50.600;4.608;2022-08-19T03:29:50;28.90;51.80
44433;DHT22;30136;50.600;4.608;2022-08-19T03:30:56;28.90;51.80
44433;DHT22;30136;50.600;4.608;2022-08-19T03:32:00;28.90;51.80
44433;DHT22;30136;50.600;4.608;2022-08-19T03:33:03;28.90;51.90
44433;DHT22;30136;50.600;4.608;2022-08-19T03:34:03;28.90;51.90
44433;DHT22;30136;50.600;4.608;2022-08-19T03:35:04;28.90;51.90
44433;DHT22;30136;50.600;4.608;2022-08-19T03:36:10;28.90;51.80
44433;DHT22;30136;50.600;4.608;2022-08-19T03:37:11;28.90;51.80
44433;DHT22;30136;50.600;4.608;2022-08-19T03:38:12;28.90;51.80
44433;DHT22;30136;50.600;4.608;2022-08-19T03:39:13;28.90;51.80
44433;DHT22;30136;50.600;4.608;2022-08-19T03:40:14;28.90;51.90
44433;DHT22;30136;50.600;4.608;2022-08-19T03:41:16;28.90;51.90
44433;DHT22;30136;50.600;4.608;2022-08-19T03:42:19;28.90;52.00
44433;DHT22;30136;50.600;4.608;2022-08-19T03:43:20;28.90;51.80
44433;DHT22;30136;50.600;4.608;2022-08-19T03:44:21;28.90;51.80
44433;DHT22;30136;50.600;4.608;2022-08-19T03:45:23;28.90;51.90
44433;DHT22;30136;50.600;4.608;2022-08-19T03:46:29;28.90;51.80
44433;DHT22;30136;50.600;4.608;2022-08-19T03:47:30;28.80;51.80
44433;DHT22;30136;50.600;4.608;2022-08-19T03:48:32;28.90;51.90
44433;DHT22;30136;50.600;4.608;2022-08-19T03:49:33;28.80;51.90
44433;DHT22;30136;50.600;4.608;2022-08-19T03:50:38;28.80;51.80
44433;DHT22;30136;50.600;4.608;2022-08-19T03:51:41;28.80;51.90
44433;DHT22;30136;50.600;4.608;2022-08-19T03:52:42;28.80;51.80
44433;DHT22;30136;50.600;4.608;2022-08-19T03:53:43;28.80;51.80
44433;DHT22;30136;50.600;4.608;2022-08-19T03:54:43;28.90;51.90
44433;DHT22;30136;50.600;4.608;2022-08-19T03:55:45;28.80;51.90
44433;DHT22;30136;50.600;4.608;2022-08-19T03:56:46;28.80;51.90
44433;DHT22;30136;50.600;4.608;2022-08-19T03:57:48;28.80;51.80
44433;DHT22;30136;50.600;4.608;2022-08-19T03:58:49;28.80;51.90
44433;DHT22;30136;50.600;4.608;2022-08-19T03:59:49;28.80;51.80
44433;DHT22;30136;50.600;4.608;2022-08-19T04:00:50;28.90;51.90
44433;DHT22;30136;50.600;4.608;2022-08-19T04:01:52;28.80;51.80
44433;DHT22;30136;50.600;4.608;2022-08-19T04:02:53;28.80;51.80
44433;DHT22;30136;50.600;4.608;2022-08-19T04:03:59;28.80;51.80
44433;DHT22;30136;50.600;4.608;2022-08-19T04:05:00;28.80;51.80
44433;DHT22;30136;50.600;4.608;2022-08-19T04:06:15;28.80;51.90
44433;DHT22;30136;50.600;4.608;2022-08-19T04:07:23;28.80;51.80
44433;DHT22;30136;50.600;4.608;2022-08-19T04:08:25;28.80;51.80
44433;DHT22;30136;50.600;4.608;2022-08-19T04:09:26;28.80;51.80
44433;DHT22;30136;50.600;4.608;2022-08-19T04:10:27;28.80;51.70
44433;DHT22;30136;50.600;4.608;2022-08-19T04:11:30;28.80;51.80
44433;DHT22;30136;50.600;4.608;2022-08-19T04:12:34;28.80;51.80
44433;DHT22;30136;50.600;4.608;2022-08-19T04:13:35;28.80;51.80
44433;DHT22;30136;50.600;4.608;2022-08-19T04:14:35;28.80;51.80
44433;DHT22;30136;50.600;4.608;2022-08-19T04:15:40;28.80;51.80
44433;DHT22;30136;50.600;4.608;2022-08-19T04:16:42;28.80;51.70
44433;DHT22;30136;50.600;4.608;2022-08-19T04:17:44;28.80;51.70
44433;DHT22;30136;50.600;4.608;2022-08-19T04:18:45;28.80;51.70
44433;DHT22;30136;50.600;4.608;2022-08-19T04:19:46;28.80;51.70
44433;DHT22;30136;50.600;4.608;2022-08-19T04:20:47;28.80;51.70
44433;DHT22;30136;50.600;4.608;2022-08-19T04:21:49;28.80;51.70
44433;DHT22;30136;50.600;4.608;2022-08-19T04:22:51;28.80;51.80
44433;DHT22;30136;50.600;4.608;2022-08-19T04:23:52;28.80;51.70
44433;DHT22;30136;50.600;4.608;2022-08-19T04:24:53;28.80;51.70
44433;DHT22;30136;50.600;4.608;2022-08-19T04:25:54;28.80;51.70
44433;DHT22;30136;50.600;4.608;2022-08-19T04:26:55;28.80;51.70
44433;DHT22;30136;50.600;4.608;2022-08-19T04:27:56;28.80;51.70
44433;DHT22;30136;50.600;4.608;2022-08-19T04:28:57;28.80;51.70
44433;DHT22;30136;50.600;4.608;2022-08-19T04:29:58;28.80;51.70
44433;DHT22;30136;50.600;4.608;2022-08-19T04:30:59;28.80;51.70
44433;DHT22;30136;50.600;4.608;2022-08-19T04:32:00;28.80;51.60
44433;DHT22;30136;50.600;4.608;2022-08-19T04:33:01;28.80;51.70
44433;DHT22;30136;50.600;4.608;2022-08-19T04:34:03;28.80;51.70
44433;DHT22;30136;50.600;4.608;2022-08-19T04:35:05;28.80;51.70
44433;DHT22;30136;50.600;4.608;2022-08-19T04:36:06;28.80;51.70
44433;DHT22;30136;50.600;4.608;2022-08-19T04:37:07;28.80;51.70
44433;DHT22;30136;50.600;4.608;2022-08-19T04:38:12;28.80;51.60
44433;DHT22;30136;50.600;4.608;2022-08-19T04:39:14;28.80;51.60
44433;DHT22;30136;50.600;4.608;2022-08-19T04:40:16;28.80;51.60
44433;DHT22;30136;50.600;4.608;2022-08-19T04:41:36;28.80;51.50
44433;DHT22;30136;50.600;4.608;2022-08-19T04:43:15;28.80;51.60
44433;DHT22;30136;50.600;4.608;2022-08-19T04:44:16;28.80;51.50
44433;DHT22;30136;50.600;4.608;2022-08-19T04:45:18;28.80;51.50
44433;DHT22;30136;50.600;4.608;2022-08-19T04:46:19;28.80;51.60
44433;DHT22;30136;50.600;4.608;2022-08-19T04:47:20;28.80;51.60
44433;DHT22;30136;50.600;4.608;2022-08-19T04:48:21;28.80;51.50
44433;DHT22;30136;50.600;4.608;2022-08-19T04:49:26;28.80;51.60
44433;DHT22;30136;50.600;4.608;2022-08-19T04:50:27;28.80;51.50
44433;DHT22;30136;50.600;4.608;2022-08-19T04:51:27;28.80;51.50
44433;DHT22;30136;50.600;4.608;2022-08-19T04:52:31;28.80;51.50
44433;DHT22;30136;50.600;4.608;2022-08-19T04:53:32;28.80;51.50
44433;DHT22;30136;50.600;4.608;2022-08-19T04:54:35;28.80;51.40
44433;DHT22;30136;50.600;4.608;2022-08-19T04:55:40;28.80;51.50
44433;DHT22;30136;50.600;4.608;2022-08-19T04:56:41;28.80;51.50
44433;DHT22;30136;50.600;4.608;2022-08-19T04:57:42;28.80;51.50
44433;DHT22;30136;50.600;4.608;2022-08-19T04:58:43;28.80;51.50
44433;DHT22;30136;50.600;4.608;2022-08-19T04:59:45;28.80;51.50
44433;DHT22;30136;50.600;4.608;2022-08-19T05:00:46;28.80;51.50
44433;DHT22;30136;50.600;4.608;2022-08-19T05:01:47;28.80;51.50
44433;DHT22;30136;50.600;4.608;2022-08-19T05:02:50;28.80;51.40
44433;DHT22;30136;50.600;4.608;2022-08-19T05:03:51;28.80;51.40
44433;DHT22;30136;50.600;4.608;2022-08-19T05:04:56;28.80;51.50
44433;DHT22;30136;50.600;4.608;2022-08-19T05:06:04;28.80;51.50
44433;DHT22;30136;50.600;4.608;2022-08-19T05:07:07;28.80;51.40
44433;DHT22;30136;50.600;4.608;2022-08-19T05:08:08;28.80;51.40
44433;DHT22;30136;50.600;4.608;2022-08-19T05:09:09;28.80;51.40
44433;DHT22;30136;50.600;4.608;2022-08-19T05:10:10;28.80;51.30
44433;DHT22;30136;50.600;4.608;2022-08-19T05:12:12;28.80;51.20
44433;DHT22;30136;50.600;4.608;2022-08-19T05:13:13;28.80;51.40
44433;DHT22;30136;50.600;4.608;2022-08-19T05:14:14;28.70;51.30
44433;DHT22;30136;50.600;4.608;2022-08-19T05:15:15;28.80;51.40
44433;DHT22;30136;50.600;4.608;2022-08-19T05:16:17;28.80;51.30
44433;DHT22;30136;50.600;4.608;2022-08-19T05:17:19;28.80;51.30
44433;DHT22;30136;50.600;4.608;2022-08-19T05:18:20;28.70;51.30
44433;DHT22;30136;50.600;4.608;2022-08-19T05:19:39;28.80;51.40
44433;DHT22;30136;50.600;4.608;2022-08-19T05:20:58;28.80;51.30
44433;DHT22;30136;50.600;4.608;2022-08-19T05:22:17;28.80;51.30
44433;DHT22;30136;50.600;4.608;2022-08-19T05:23:34;28.80;51.30
44433;DHT22;30136;50.600;4.608;2022-08-19T05:24:35;28.80;51.30
44433;DHT22;30136;50.600;4.608;2022-08-19T05:25:39;28.80;51.40
44433;DHT22;30136;50.600;4.608;2022-08-19T05:26:41;28.80;51.20
44433;DHT22;30136;50.600;4.608;2022-08-19T05:27:42;28.80;51.30
44433;DHT22;30136;50.600;4.608;2022-08-19T05:28:43;28.80;51.30
44433;DHT22;30136;50.600;4.608;2022-08-19T05:29:44;28.80;51.20
44433;DHT22;30136;50.600;4.608;2022-08-19T05:30:45;28.80;51.30
44433;DHT22;30136;50.600;4.608;2022-08-19T05:31:46;28.80;51.30
44433;DHT22;30136;50.600;4.608;2022-08-19T05:32:49;28.80;51.30
44433;DHT22;30136;50.600;4.608;2022-08-19T05:33:50;28.80;51.30
44433;DHT22;30136;50.600;4.608;2022-08-19T05:34:51;28.70;51.30
44433;DHT22;30136;50.600;4.608;2022-08-19T05:35:51;28.70;51.30
44433;DHT22;30136;50.600;4.608;2022-08-19T05:36:54;28.70;51.30
44433;DHT22;30136;50.600;4.608;2022-08-19T05:37:57;28.70;51.30
44433;DHT22;30136;50.600;4.608;2022-08-19T05:38:57;28.70;51.30
44433;DHT22;30136;50.600;4.608;2022-08-19T05:39:58;28.70;51.30
44433;DHT22;30136;50.600;4.608;2022-08-19T05:40:59;28.70;51.30
44433;DHT22;30136;50.600;4.608;2022-08-19T05:42:05;28.70;51.30
44433;DHT22;30136;50.600;4.608;2022-08-19T05:43:09;28.70;51.30
44433;DHT22;30136;50.600;4.608;2022-08-19T05:44:10;28.70;51.30
44433;DHT22;30136;50.600;4.608;2022-08-19T05:45:11;28.70;51.40
44433;DHT22;30136;50.600;4.608;2022-08-19T05:46:18;28.70;51.30
44433;DHT22;30136;50.600;4.608;2022-08-19T05:47:19;28.70;51.40
44433;DHT22;30136;50.600;4.608;2022-08-19T05:48:20;28.70;51.30
44433;DHT22;30136;50.600;4.608;2022-08-19T05:49:22;28.70;51.40
44433;DHT22;30136;50.600;4.608;2022-08-19T05:50:23;28.70;51.30
44433;DHT22;30136;50.600;4.608;2022-08-19T05:51:26;28.70;51.40
44433;DHT22;30136;50.600;4.608;2022-08-19T05:52:26;28.70;51.40
44433;DHT22;30136;50.600;4.608;2022-08-19T05:53:28;28.70;51.40
44433;DHT22;30136;50.600;4.608;2022-08-19T05:54:28;28.70;51.50
44433;DHT22;30136;50.600;4.608;2022-08-19T05:55:30;28.70;51.50
44433;DHT22;30136;50.600;4.608;2022-08-19T05:56:31;28.70;51.50
44433;DHT22;30136;50.600;4.608;2022-08-19T05:57:32;28.70;51.50
44433;DHT22;30136;50.600;4.608;2022-08-19T05:58:33;28.70;51.50
44433;DHT22;30136;50.600;4.608;2022-08-19T05:59:34;28.70;51.50
44433;DHT22;30136;50.600;4.608;2022-08-19T06:00:35;28.70;51.50
44433;DHT22;30136;50.600;4.608;2022-08-19T06:01:38;28.70;51.50
44433;DHT22;30136;50.600;4.608;2022-08-19T06:02:40;28.70;51.60
44433;DHT22;30136;50.600;4.608;2022-08-19T06:03:41;28.70;51.50
44433;DHT22;30136;50.600;4.608;2022-08-19T06:04:41;28.70;51.60
44433;DHT22;30136;50.600;4.608;2022-08-19T06:05:45;28.70;51.50
44433;DHT22;30136;50.600;4.608;2022-08-19T06:06:46;28.70;51.50
44433;DHT22;30136;50.600;4.608;2022-08-19T06:07:48;28.70;51.60
44433;DHT22;30136;50.600;4.608;2022-08-19T06:08:49;28.70;51.50
44433;DHT22;30136;50.600;4.608;2022-08-19T06:09:51;28.70;51.60
44433;DHT22;30136;50.600;4.608;2022-08-19T06:10:51;28.70;51.60
44433;DHT22;30136;50.600;4.608;2022-08-19T06:11:54;28.70;51.60
44433;DHT22;30136;50.600;4.608;2022-08-19T06:13:00;28.70;51.60
44433;DHT22;30136;50.600;4.608;2022-08-19T06:14:02;28.70;51.60
44433;DHT22;30136;50.600;4.608;2022-08-19T06:15:06;28.70;51.60
44433;DHT22;30136;50.600;4.608;2022-08-19T06:16:09;28.70;51.60
44433;DHT22;30136;50.600;4.608;2022-08-19T06:17:10;28.70;51.70
44433;DHT22;30136;50.600;4.608;2022-08-19T06:18:12;28.60;51.60
44433;DHT22;30136;50.600;4.608;2022-08-19T06:19:15;28.70;51.70
44433;DHT22;30136;50.600;4.608;2022-08-19T06:20:17;28.60;51.60
44433;DHT22;30136;50.600;4.608;2022-08-19T06:21:23;28.70;51.60
44433;DHT22;30136;50.600;4.608;2022-08-19T06:22:25;28.70;51.60
44433;DHT22;30136;50.600;4.608;2022-08-19T06:23:27;28.70;51.60
44433;DHT22;30136;50.600;4.608;2022-08-19T06:24:28;28.70;51.60
44433;DHT22;30136;50.600;4.608;2022-08-19T06:25:29;28.70;51.60
44433;DHT22;30136;50.600;4.608;2022-08-19T06:26:30;28.70;51.60
44433;DHT22;30136;50.600;4.608;2022-08-19T06:27:31;28.70;51.60
44433;DHT22;30136;50.600;4.608;2022-08-19T06:28:33;28.70;51.60
44433;DHT22;30136;50.600;4.608;2022-08-19T06:29:34;28.70;51.60
44433;DHT22;30136;50.600;4.608;2022-08-19T06:30:35;28.70;51.60
44433;DHT22;30136;50.600;4.608;2022-08-19T06:31:40;28.70;51.60
44433;DHT22;30136;50.600;4.608;2022-08-19T06:32:42;28.70;51.60
44433;DHT22;30136;50.600;4.608;2022-08-19T06:33:43;28.70;51.70
44433;DHT22;30136;50.600;4.608;2022-08-19T06:34:45;28.70;51.70